map of LPMR home
LPMR - Airport
Location
City:  Monte Real, Leiria, Portugal
Near (Alt.):Leiria
Name:Monte Real AB
Old (Alt.):Air Base Nr 5
ICAO:LPMR

Details
Type:Airport (Aerodrome, Airfield)
Use:Military, International (customs port of entry)
Latitude:3949'52"N (39.831244)
Longitude:853'14"W (-8.887260)
Datum:WGS 1984
Elevation:187 ft (57 m)
Variation:2.06W (WMM2015v2 magnetic declination)
0.16 annual change
Runways:1
Longest:9816 × 148 ft (2992 × 45 m), paved

Time
Time Zone:UTC+0 (DST+1)
Local Time:

Weather
METAR:LPMR 041400Z 30007KT CAVOK 13/00 Q1030
TAF:LPMR 041112Z 0412/0512 VRB02KT CAVOK
BECMG 0413/0415 34007KT
BECMG 0420/0422 VRB02KT PROB30 0505/0508 18005KT 3000 BR NSC

Related Locations
Nearby:
Farthest:KTF: 12326 mi / 19837 km
Takaka, TAS, NZ

Find:

   beyond  
but within

Other Information
Maps:
NOTAMs:
Links:
Sources:

  
  • flag of Portugal
  

Sectional Chart

Flight Planning
at skyvector.com

Satellite Image

Google Maps Satellite view

 

Copyright © 2004-2019 Karl L. Swartz. All rights reserved.
The Great Circle Mapper name and logo are trademarks of the Great Circle Mapper.
All other trademarks mentioned herein belong to their respective owners.
Please see credits for attibutions and further copyright information.

  Follow gcmap on Facebook Follow gcmap on Twitter GCmap on LinkedIn

hCard Microformat

Geo Microformat